sensor_id;sensor_type;location;lat;lon;timestamp;P1;durP1;ratioP1;P2;durP2;ratioP2
6444;SDS011;64733;51.424;5.484;2022-12-15T10:17:21;7.90;;;4.82;;
6444;SDS011;64733;51.424;5.484;2022-12-15T10:19:51;8.07;;;5.45;;
6444;SDS011;64733;51.424;5.484;2022-12-15T10:22:25;7.68;;;5.40;;
6444;SDS011;64733;51.424;5.484;2022-12-15T10:24:56;10.20;;;5.07;;
6444;SDS011;64733;51.424;5.484;2022-12-15T10:27:33;6.32;;;4.68;;
6444;SDS011;64733;51.424;5.484;2022-12-15T10:30:11;6.50;;;5.05;;
6444;SDS011;64733;51.424;5.484;2022-12-15T10:32:43;9.07;;;5.13;;
6444;SDS011;64733;51.424;5.484;2022-12-15T10:35:16;8.20;;;4.93;;
6444;SDS011;64733;51.424;5.484;2022-12-15T10:37:46;7.40;;;5.43;;
6444;SDS011;64733;51.424;5.484;2022-12-15T10:40:16;14.93;;;6.25;;
6444;SDS011;64733;51.424;5.484;2022-12-15T10:42:46;10.32;;;6.07;;
6444;SDS011;64733;51.424;5.484;2022-12-15T10:45:32;8.70;;;5.80;;
6444;SDS011;64733;51.424;5.484;2022-12-15T10:48:04;9.75;;;6.57;;
6444;SDS011;64733;51.424;5.484;2022-12-15T10:50:33;9.38;;;5.88;;
6444;SDS011;64733;51.424;5.484;2022-12-15T10:53:05;9.15;;;5.45;;
6444;SDS011;64733;51.424;5.484;2022-12-15T10:55:35;8.82;;;5.90;;
6444;SDS011;64733;51.424;5.484;2022-12-15T10:58:19;8.50;;;6.60;;
6444;SDS011;64733;51.424;5.484;2022-12-15T11:00:48;9.20;;;6.38;;
6444;SDS011;64733;51.424;5.484;2022-12-15T11:03:35;7.68;;;4.68;;
6444;SDS011;64733;51.424;5.484;2022-12-15T11:06:08;8.57;;;4.97;;
6444;SDS011;64733;51.424;5.484;2022-12-15T11:08:40;359.65;;;239.30;;
6444;SDS011;64733;51.424;5.484;2022-12-15T11:11:21;289.63;;;187.52;;
6444;SDS011;64733;51.424;5.484;2022-12-15T11:14:12;228.68;;;150.93;;
6444;SDS011;64733;51.424;5.484;2022-12-15T11:16:44;237.27;;;148.80;;
6444;SDS011;64733;51.424;5.484;2022-12-15T11:19:16;211.85;;;136.63;;
6444;SDS011;64733;51.424;5.484;2022-12-15T11:21:54;214.38;;;138.50;;
6444;SDS011;64733;51.424;5.484;2022-12-15T11:51:29;155.95;;;98.53;;
6444;SDS011;64733;51.424;5.484;2022-12-15T12:40:55;82.72;;;51.00;;
6444;SDS011;64733;51.424;5.484;2022-12-15T23:04:43;6.95;;;5.30;;
6444;SDS011;64733;51.424;5.484;2022-12-15T23:07:10;5.85;;;4.65;;
6444;SDS011;64733;51.424;5.484;2022-12-15T23:09:37;8.30;;;5.43;;
6444;SDS011;64733;51.424;5.484;2022-12-15T23:12:04;6.13;;;4.75;;
6444;SDS011;64733;51.424;5.484;2022-12-15T23:14:30;5.90;;;4.53;;
6444;SDS011;64733;51.424;5.484;2022-12-15T23:17:14;7.32;;;5.28;;
6444;SDS011;64733;51.424;5.484;2022-12-15T23:19:43;8.20;;;5.18;;
6444;SDS011;64733;51.424;5.484;2022-12-15T23:22:10;7.57;;;5.43;;
6444;SDS011;64733;51.424;5.484;2022-12-15T23:24:36;6.57;;;5.63;;
6444;SDS011;64733;51.424;5.484;2022-12-15T23:27:03;6.30;;;5.20;;
6444;SDS011;64733;51.424;5.484;2022-12-15T23:29:34;6.40;;;5.15;;
6444;SDS011;64733;51.424;5.484;2022-12-15T23:32:01;7.90;;;6.05;;
6444;SDS011;64733;51.424;5.484;2022-12-15T23:34:28;7.18;;;5.35;;
6444;SDS011;64733;51.424;5.484;2022-12-15T23:36:56;6.85;;;5.03;;
6444;SDS011;64733;51.424;5.484;2022-12-15T23:39:23;5.88;;;4.80;;
6444;SDS011;64733;51.424;5.484;2022-12-15T23:41:50;7.68;;;5.60;;
6444;SDS011;64733;51.424;5.484;2022-12-15T23:44:16;6.55;;;5.32;;
6444;SDS011;64733;51.424;5.484;2022-12-15T23:46:43;7.28;;;5.68;;
6444;SDS011;64733;51.424;5.484;2022-12-15T23:49:10;7.10;;;5.57;;
6444;SDS011;64733;51.424;5.484;2022-12-15T23:51:37;7.22;;;5.82;;
6444;SDS011;64733;51.424;5.484;2022-12-15T23:54:05;7.35;;;4.88;;
6444;SDS011;64733;51.424;5.484;2022-12-15T23:56:32;8.70;;;5.30;;
6444;SDS011;64733;51.424;5.484;2022-12-15T23:58:58;7.18;;;5.57;;
